Time;durP1;ratioP1;P1;durP2;ratioP2;P2;SDS_P1;SDS_P2;PMS_P1;PMS_P2;Temp;Humidity;BMP_temperature;BMP_pressure;BME280_temperature;BME280_humidity;BME280_pressure;Samples;Min_cycle;Max_cycle;Signal;HPM_P1;HPM_P2
2022/03/24 00:02:12;;;;;;;19.17;12.50;;;;;;;3.84;100.00;101435.50;5025166;28;20200;-63
2022/03/24 00:04:38;;;;;;;13.97;11.97;;;;;;;3.76;100.00;101433.53;5018468;28;20224;-63
2022/03/24 00:07:04;;;;;;;14.27;12.03;;;;;;;3.71;100.00;101434.16;5020519;28;20193;-63
2022/03/24 00:09:29;;;;;;;16.30;12.97;;;;;;;3.66;100.00;101434.88;5025470;28;20323;-62
2022/03/24 00:11:55;;;;;;;15.03;12.80;;;;;;;3.65;100.00;101429.69;5021462;28;20191;-63
2022/03/24 00:14:21;;;;;;;19.40;12.90;;;;;;;3.63;100.00;101433.91;5026549;28;20278;-63
2022/03/24 00:16:47;;;;;;;14.17;12.67;;;;;;;3.61;100.00;101427.84;5021473;28;20188;-63
2022/03/24 00:19:13;;;;;;;14.77;13.13;;;;;;;3.56;100.00;101424.22;5021320;28;20192;-63
2022/03/24 00:21:38;;;;;;;14.60;12.53;;;;;;;3.52;100.00;101428.38;5021894;28;20695;-63
2022/03/24 00:24:04;;;;;;;19.53;13.37;;;;;;;3.49;100.00;101423.97;5023482;28;20309;-62
2022/03/24 00:26:29;;;;;;;17.33;14.10;;;;;;;3.45;100.00;101428.94;5021942;28;20198;-62
2022/03/24 00:28:55;;;;;;;17.73;13.23;;;;;;;3.44;100.00;101417.84;5024422;28;20214;-62
2022/03/24 00:31:20;;;;;;;15.50;12.83;;;;;;;3.44;100.00;101422.06;5022510;28;20282;-63
2022/03/24 00:33:45;;;;;;;14.83;12.77;;;;;;;3.43;100.00;101412.63;5020669;28;20192;-62
2022/03/24 00:36:11;;;;;;;19.23;12.73;;;;;;;3.42;100.00;101423.69;5019156;28;20187;-62
2022/03/24 00:38:38;;;;;;;18.10;13.63;;;;;;;3.39;100.00;101428.72;5022806;28;20208;-62
2022/03/24 00:41:04;;;;;;;16.93;12.57;;;;;;;3.36;100.00;101426.88;5026739;28;20275;-62
2022/03/24 00:43:30;;;;;;;13.90;12.50;;;;;;;3.32;100.00;101419.91;5024291;28;20267;-63
2022/03/24 00:45:55;;;;;;;15.30;12.77;;;;;;;3.29;100.00;101415.53;5024612;28;20183;-63
2022/03/24 00:48:20;;;;;;;18.70;13.60;;;;;;;3.25;100.00;101421.38;5020112;28;20223;-63
2022/03/24 00:50:46;;;;;;;14.70;12.57;;;;;;;3.23;100.00;101414.44;5026354;28;20207;-63
2022/03/24 00:53:11;;;;;;;18.83;13.40;;;;;;;3.19;100.00;101411.75;5028093;28;20620;-62
2022/03/24 00:55:39;;;;;;;16.83;12.53;;;;;;;3.15;100.00;101417.56;5020960;28;20325;-63
2022/03/24 00:58:04;;;;;;;15.27;12.50;;;;;;;3.14;100.00;101404.69;5025265;28;20210;-63
2022/03/24 01:00:30;;;;;;;16.20;13.07;;;;;;;3.12;100.00;101404.66;5023856;28;20183;-62
2022/03/24 01:02:57;;;;;;;14.23;12.53;;;;;;;3.13;100.00;101408.06;5024527;28;20625;-62
2022/03/24 01:05:28;;;;;;;14.87;12.73;;;;;;;3.12;100.00;101398.66;5025065;28;20279;-62
2022/03/24 01:07:56;;;;;;;14.63;12.30;;;;;;;3.10;100.00;101392.63;5019532;28;20211;-63
2022/03/24 01:10:22;;;;;;;15.03;12.57;;;;;;;3.10;100.00;101402.84;5024280;28;20261;-63
2022/03/24 01:12:49;;;;;;;13.27;11.97;;;;;;;3.08;100.00;101401.91;5028184;28;20189;-63
2022/03/24 01:15:18;;;;;;;14.87;13.10;;;;;;;3.07;100.00;101400.16;5021122;28;20563;-62
2022/03/24 01:17:44;;;;;;;15.20;13.57;;;;;;;3.05;100.00;101406.09;5032359;28;20194;-63
2022/03/24 01:20:12;;;;;;;14.63;12.40;;;;;;;3.02;100.00;101400.00;5022342;28;20242;-63
2022/03/24 01:22:38;;;;;;;14.57;13.10;;;;;;;2.97;100.00;101404.91;5023506;28;20195;-63
2022/03/24 01:25:06;;;;;;;14.50;13.00;;;;;;;2.95;100.00;101401.41;5023058;28;20655;-63
2022/03/24 01:27:32;;;;;;;14.40;13.00;;;;;;;2.94;100.00;101401.34;5023584;28;20306;-63
2022/03/24 01:29:59;;;;;;;13.83;12.33;;;;;;;2.90;100.00;101401.22;5021902;28;20575;-62
2022/03/24 01:32:28;;;;;;;15.67;13.30;;;;;;;2.86;100.00;101401.94;5020633;28;20710;-63
2022/03/24 01:34:55;;;;;;;14.53;12.97;;;;;;;2.84;100.00;101398.44;5021821;28;20198;-63
2022/03/24 01:37:22;;;;;;;14.80;13.20;;;;;;;2.83;100.00;101401.81;5023391;28;20191;-63
2022/03/24 01:39:48;;;;;;;14.23;12.33;;;;;;;2.81;100.00;101399.97;5020329;28;20235;-63
2022/03/24 01:42:16;;;;;;;15.37;13.50;;;;;;;2.79;100.00;101399.06;5021777;28;20259;-63
2022/03/24 01:44:46;;;;;;;14.17;12.67;;;;;;;2.77;100.00;101396.44;5018947;28;20201;-63
2022/03/24 01:47:12;;;;;;;14.43;13.03;;;;;;;2.76;100.00;101392.13;5022740;28;20192;-63
2022/03/24 01:49:40;;;;;;;14.77;13.07;;;;;;;2.74;100.00;101399.75;5021676;28;20242;-63
2022/03/24 01:52:08;;;;;;;16.47;14.83;;;;;;;2.71;100.00;101396.19;5036439;28;20726;-62
2022/03/24 01:54:36;;;;;;;17.23;14.00;;;;;;;2.66;100.00;101392.56;5019672;28;20431;-62
2022/03/24 01:57:02;;;;;;;16.07;13.70;;;;;;;2.58;100.00;101398.22;5024371;28;20213;-62
2022/03/24 01:59:29;;;;;;;16.97;13.87;;;;;;;2.54;100.00;101396.38;5022849;28;20762;-62
2022/03/24 02:01:54;;;;;;;14.77;13.20;;;;;;;2.52;100.00;101394.53;5025515;28;20193;-62
2022/03/24 02:04:20;;;;;;;15.00;13.00;;;;;;;2.47;100.00;101396.91;5022345;28;20188;-63
2022/03/24 02:06:46;;;;;;;15.13;13.53;;;;;;;2.43;100.00;101392.47;5019872;28;20203;-62
2022/03/24 02:09:12;;;;;;;16.53;14.40;;;;;;;2.38;100.00;101394.81;5022686;28;20207;-62
2022/03/24 02:11:39;;;;;;;15.77;13.30;;;;;;;2.35;100.00;101396.38;5025813;28;20215;-62
2022/03/24 02:14:05;;;;;;;15.40;13.37;;;;;;;2.33;100.00;101400.56;5026176;28;20281;-62
2022/03/24 02:16:34;;;;;;;16.67;13.70;;;;;;;2.31;100.00;101402.16;5024721;28;20223;-63
2022/03/24 02:19:15;;;;;;;15.43;13.83;;;;;;;2.28;100.00;101395.25;5025219;28;20217;-63
2022/03/24 02:21:42;;;;;;;17.27;13.77;;;;;;;2.27;100.00;101396.06;5021852;28;20726;-63
2022/03/24 02:24:08;;;;;;;16.47;13.83;;;;;;;2.26;100.00;101395.19;5026107;28;20197;-62
2022/03/24 02:26:35;;;;;;;14.80;13.30;;;;;;;2.25;100.00;101384.91;5022794;28;20191;-65
2022/03/24 02:29:06;;;;;;;15.77;14.10;;;;;;;2.24;100.00;101388.25;5025646;28;20690;-62
2022/03/24 02:31:33;;;;;;;17.93;14.10;;;;;;;2.21;100.00;101380.47;5027436;28;20577;-64
2022/03/24 02:34:37;;;;;;;16.70;14.00;;;;;;;2.20;100.00;101379.59;5019503;28;20210;-65
2022/03/24 02:36:43;;;;;;;18.40;14.57;;;;;;;2.19;100.00;101380.41;5029113;28;20651;-64
2022/03/24 02:39:09;;;;;;;18.67;14.57;;;;;;;2.17;100.00;101379.47;5026744;28;20206;-62
2022/03/24 02:41:46;;;;;;;19.47;15.20;;;;;;;2.13;100.00;101380.13;5026577;28;20211;-63
2022/03/24 02:44:17;;;;;;;22.80;15.30;;;;;;;2.08;100.00;101381.63;5025332;28;20885;-63
2022/03/24 02:46:48;;;;;;;21.23;14.73;;;;;;;2.03;100.00;101380.56;5026436;28;20318;-63
2022/03/24 02:49:18;;;;;;;18.80;14.30;;;;;;;1.96;100.00;101375.19;5028528;28;21515;-63
2022/03/24 02:51:44;;;;;;;16.53;14.77;;;;;;;1.89;100.00;101385.06;5025338;28;20189;-63
2022/03/24 02:54:11;;;;;;;21.53;15.23;;;;;;;1.84;100.00;101384.84;5025784;28;20232;-63
2022/03/24 02:56:37;;;;;;;23.60;14.83;;;;;;;1.80;100.00;101388.09;5026022;28;20230;-63
2022/03/24 02:59:04;;;;;;;18.27;14.67;;;;;;;1.75;100.00;101389.53;5026678;28;20211;-63
2022/03/24 03:01:30;;;;;;;20.60;15.17;;;;;;;1.72;100.00;101390.28;5026720;28;20204;-63
2022/03/24 03:03:55;;;;;;;23.43;15.70;;;;;;;1.72;100.00;101391.94;5026139;28;20566;-63
2022/03/24 03:06:22;;;;;;;22.83;15.43;;;;;;;1.70;100.00;101388.44;5025722;28;20241;-64
2022/03/24 03:08:49;;;;;;;19.13;14.70;;;;;;;1.68;100.00;101396.06;5025743;28;20219;-63
2022/03/24 03:11:20;;;;;;;18.93;14.30;;;;;;;1.64;100.00;101401.81;5038434;28;20195;-63
2022/03/24 03:13:46;;;;;;;19.83;14.27;;;;;;;1.61;100.00;101404.22;5027137;28;20195;-63
2022/03/24 03:16:12;;;;;;;22.57;14.67;;;;;;;1.59;100.00;101403.31;5023033;28;20188;-63
2022/03/24 03:18:41;;;;;;;20.07;15.80;;;;;;;1.56;100.00;101398.91;5021243;28;20215;-63
2022/03/24 03:21:09;;;;;;;18.60;13.93;;;;;;;1.57;100.00;101395.56;5043239;28;20628;-63
2022/03/24 03:23:38;;;;;;;19.00;14.00;;;;;;;1.60;100.00;101398.25;5026808;28;20206;-63
2022/03/24 03:26:06;;;;;;;22.73;15.97;;;;;;;1.62;100.00;101393.22;5033689;28;20205;-63
2022/03/24 03:28:33;;;;;;;23.03;14.80;;;;;;;1.64;100.00;101405.25;5024988;28;20598;-63
2022/03/24 03:30:58;;;;;;;20.83;14.43;;;;;;;1.66;100.00;101407.88;5023507;28;20192;-63
2022/03/24 03:33:24;;;;;;;18.10;14.30;;;;;;;1.67;100.00;101407.06;5027704;28;20186;-63
2022/03/24 03:35:50;;;;;;;16.20;14.50;;;;;;;1.67;100.00;101410.47;5036101;28;20199;-63
2022/03/24 03:38:15;;;;;;;22.57;14.90;;;;;;;1.70;100.00;101412.31;5034824;28;20218;-63
2022/03/24 03:40:41;;;;;;;16.20;14.50;;;;;;;1.67;100.00;101407.91;5030942;28;20196;-63
2022/03/24 03:43:07;;;;;;;17.57;14.90;;;;;;;1.63;100.00;101412.81;5025869;28;20183;-62
2022/03/24 03:45:32;;;;;;;15.43;13.83;;;;;;;1.59;100.00;101408.41;5029222;28;20638;-63
2022/03/24 03:47:58;;;;;;;16.53;13.53;;;;;;;1.54;100.00;101415.81;5027952;28;20220;-63
2022/03/24 03:50:24;;;;;;;17.83;14.07;;;;;;;1.51;100.00;101406.34;5024766;28;20229;-63
2022/03/24 03:52:49;;;;;;;18.27;14.97;;;;;;;1.49;100.00;101409.66;5031605;28;20207;-62
2022/03/24 03:55:15;;;;;;;16.57;14.17;;;;;;;1.45;100.00;101412.84;5025027;28;20367;-63
2022/03/24 03:57:40;;;;;;;16.17;14.07;;;;;;;1.40;100.00;101412.66;5024000;28;20266;-63
2022/03/24 04:02:51;;;;;;;22.37;14.90;;;;;;;1.35;100.00;101419.19;5028496;28;20190;-63
2022/03/24 04:05:23;;;;;;;15.93;14.23;;;;;;;1.31;100.00;101409.66;5036584;28;20199;-63
2022/03/24 04:07:49;;;;;;;16.80;14.33;;;;;;;1.26;100.00;101414.53;5030985;28;20269;-63
2022/03/24 04:10:14;;;;;;;16.10;13.37;;;;;;;1.24;100.00;101415.28;5031831;28;20200;-63
2022/03/24 04:12:40;;;;;;;16.53;13.80;;;;;;;1.22;100.00;101415.19;5023601;28;20226;-63
2022/03/24 04:15:06;;;;;;;19.50;14.37;;;;;;;1.21;100.00;101414.31;5025783;28;20221;-63
2022/03/24 04:17:31;;;;;;;15.83;13.43;;;;;;;1.21;100.00;101408.38;5026114;28;20191;-63
2022/03/24 04:19:57;;;;;;;17.13;14.67;;;;;;;1.18;100.00;101409.06;5023423;28;20276;-63
2022/03/24 04:22:22;;;;;;;20.10;15.20;;;;;;;1.16;100.00;101410.69;5039474;28;20194;-63
2022/03/24 04:24:47;;;;;;;16.63;14.23;;;;;;;1.16;100.00;101413.22;5035106;28;20723;-63
2022/03/24 04:27:13;;;;;;;17.30;14.60;;;;;;;1.15;100.00;101416.56;5021223;28;20192;-62
2022/03/24 04:29:38;;;;;;;16.67;14.13;;;;;;;1.13;100.00;101418.19;5038469;28;20293;-63
2022/03/24 04:32:05;;;;;;;17.20;14.10;;;;;;;1.15;100.00;101425.91;5027667;28;20194;-63
2022/03/24 04:34:30;;;;;;;17.03;14.83;;;;;;;1.14;100.00;101424.16;5035919;28;20240;-64
2022/03/24 04:36:56;;;;;;;19.50;15.73;;;;;;;1.12;100.00;101419.00;5038233;28;20670;-64
2022/03/24 04:39:21;;;;;;;16.77;14.93;;;;;;;1.08;100.00;101417.09;5041467;28;20206;-63
2022/03/24 04:41:47;;;;;;;17.33;15.33;;;;;;;1.06;100.00;101413.59;5037864;28;20525;-64
2022/03/24 04:44:13;;;;;;;18.00;14.53;;;;;;;1.02;100.00;101421.88;5036754;28;20206;-64
2022/03/24 04:46:38;;;;;;;18.27;14.80;;;;;;;1.02;100.00;101419.34;5038341;28;20276;-63
2022/03/24 04:49:04;;;;;;;17.93;14.00;;;;;;;1.01;100.00;101421.03;5036981;28;20223;-63
2022/03/24 04:51:29;;;;;;;20.53;15.37;;;;;;;1.01;100.00;101425.22;5042272;28;20218;-63
2022/03/24 04:53:54;;;;;;;21.33;15.67;;;;;;;1.00;100.00;101424.38;5029086;28;20195;-64
2022/03/24 04:56:20;;;;;;;18.77;15.63;;;;;;;0.97;100.00;101424.22;5023874;28;20192;-63
2022/03/24 04:58:45;;;;;;;18.60;15.80;;;;;;;0.95;100.00;101427.50;5024283;28;20213;-64
2022/03/24 05:01:13;;;;;;;16.33;14.60;;;;;;;0.93;100.00;101432.50;5019573;28;20191;-63
2022/03/24 05:03:42;;;;;;;19.57;15.03;;;;;;;0.88;100.00;101429.75;5025443;28;20310;-63
2022/03/24 05:06:08;;;;;;;19.77;15.03;;;;;;;0.85;100.00;101432.13;5017499;28;20215;-63
2022/03/24 05:08:33;;;;;;;17.97;15.53;;;;;;;0.83;100.00;101432.88;5016646;28;20565;-63
2022/03/24 05:10:59;;;;;;;19.13;14.60;;;;;;;0.80;100.00;101428.50;5024857;28;20192;-64
2022/03/24 05:13:24;;;;;;;18.77;14.63;;;;;;;0.80;100.00;101438.69;5017373;28;20197;-63
2022/03/24 05:15:50;;;;;;;18.97;15.10;;;;;;;0.80;100.00;101438.69;5022239;28;20195;-63
2022/03/24 05:18:15;;;;;;;18.67;14.73;;;;;;;0.80;100.00;101440.34;5029934;28;20666;-63
2022/03/24 05:20:40;;;;;;;19.93;14.50;;;;;;;0.79;100.00;101444.59;5029021;28;20202;-63
2022/03/24 05:23:06;;;;;;;17.60;15.30;;;;;;;0.79;100.00;101439.50;5017461;28;20202;-63
2022/03/24 05:25:31;;;;;;;19.57;14.83;;;;;;;0.81;100.00;101447.19;5025510;28;20277;-64
2022/03/24 05:27:56;;;;;;;17.23;14.63;;;;;;;0.83;100.00;101449.03;5028148;28;20309;-64
2022/03/24 05:30:22;;;;;;;18.60;14.70;;;;;;;0.87;100.00;101447.53;5016299;28;20195;-64
2022/03/24 05:32:47;;;;;;;18.07;14.43;;;;;;;0.94;100.00;101446.16;5016992;28;20212;-64
2022/03/24 05:35:13;;;;;;;16.33;14.63;;;;;;;0.98;100.00;101453.16;5022031;28;20186;-64
2022/03/24 05:37:38;;;;;;;16.97;15.17;;;;;;;1.03;100.00;101442.38;5018789;28;20262;-64
2022/03/24 05:40:04;;;;;;;18.47;14.87;;;;;;;1.09;100.00;101451.09;5025118;28;20601;-64
2022/03/24 05:42:30;;;;;;;20.40;15.27;;;;;;;1.13;100.00;101455.56;5024203;28;20188;-63
2022/03/24 05:44:55;;;;;;;19.53;15.27;;;;;;;1.18;100.00;101452.44;5013077;28;20617;-64
2022/03/24 05:47:21;;;;;;;19.87;15.90;;;;;;;1.26;100.00;101459.59;5017517;28;20192;-64
2022/03/24 05:49:46;;;;;;;19.43;15.50;;;;;;;1.35;100.00;101467.66;5020027;28;20806;-64
2022/03/24 05:52:12;;;;;;;23.53;16.60;;;;;;;1.45;100.00;101457.09;5018164;28;20194;-64
2022/03/24 05:54:37;;;;;;;18.27;15.57;;;;;;;1.54;100.00;101459.19;5022275;28;20211;-63
2022/03/24 05:57:03;;;;;;;22.23;16.63;;;;;;;1.65;100.00;101458.03;5020470;28;20191;-63
2022/03/24 05:59:29;;;;;;;20.50;16.60;;;;;;;1.74;100.00;101457.56;5020144;28;20211;-64
2022/03/24 06:01:55;;;;;;;24.20;16.37;;;;;;;1.79;100.00;101460.34;5028574;28;20183;-64
2022/03/24 06:04:22;;;;;;;21.37;16.03;;;;;;;1.80;100.00;101462.97;5019159;28;20245;-64
2022/03/24 06:06:53;;;;;;;21.80;16.03;;;;;;;1.85;100.00;101462.31;5021579;28;20279;-63
2022/03/24 06:09:21;;;;;;;20.07;15.83;;;;;;;2.03;100.00;101467.38;5021655;28;20242;-64
2022/03/24 06:11:47;;;;;;;20.73;15.27;;;;;;;2.18;100.00;101462.94;5021886;28;20198;-64
2022/03/24 06:14:13;;;;;;;25.13;16.17;;;;;;;2.32;100.00;101476.34;5018022;28;20188;-64
2022/03/24 06:16:39;;;;;;;19.40;15.20;;;;;;;2.53;100.00;101462.72;5011382;28;20202;-64
2022/03/24 06:19:05;;;;;;;22.93;14.17;;;;;;;2.87;100.00;101466.72;5016941;28;20262;-63
2022/03/24 06:21:30;;;;;;;16.97;14.07;;;;;;;3.32;100.00;101469.41;5022518;28;20481;-64
2022/03/24 06:23:55;;;;;;;20.27;14.63;;;;;;;3.71;100.00;101467.44;5023784;28;20188;-64
2022/03/24 06:26:23;;;;;;;16.67;13.13;;;;;;;4.01;100.00;101470.28;5026096;28;20254;-64
2022/03/24 06:28:48;;;;;;;19.30;13.20;;;;;;;4.34;99.56;101474.03;5018954;28;20223;-64
2022/03/24 06:31:16;;;;;;;15.37;12.33;;;;;;;4.57;98.53;101474.84;5017290;28;20196;-64
2022/03/24 06:33:41;;;;;;;15.60;12.73;;;;;;;4.76;98.03;101472.91;5020760;28;20196;-64
2022/03/24 06:36:09;;;;;;;16.20;13.23;;;;;;;5.06;96.88;101473.06;5025349;28;20198;-64
2022/03/24 06:38:35;;;;;;;17.60;12.60;;;;;;;5.35;96.10;101468.00;5026286;28;20563;-64
2022/03/24 06:41:02;;;;;;;14.93;12.30;;;;;;;5.67;94.84;101468.13;5028622;28;20187;-64
2022/03/24 06:43:27;;;;;;;15.83;13.23;;;;;;;5.87;94.00;101467.84;5020037;28;20432;-64
2022/03/24 06:45:52;;;;;;;16.27;13.67;;;;;;;6.04;93.45;101476.94;5015302;28;20194;-63
2022/03/24 06:48:18;;;;;;;15.30;13.43;;;;;;;6.01;93.33;101471.72;5016629;28;20223;-63
2022/03/24 06:50:44;;;;;;;15.90;12.30;;;;;;;5.95;93.75;101474.09;5034089;28;20249;-64
2022/03/24 06:53:09;;;;;;;18.43;14.27;;;;;;;5.99;93.90;101477.59;5012894;28;20188;-63
2022/03/24 06:55:35;;;;;;;15.87;14.07;;;;;;;5.98;93.76;101481.84;5018276;28;20202;-64
2022/03/24 06:58:00;;;;;;;15.37;13.23;;;;;;;5.95;94.10;101474.94;5021722;28;20197;-63
2022/03/24 07:00:26;;;;;;;14.67;12.30;;;;;;;5.93;94.39;101478.31;5028170;28;20184;-64
2022/03/24 07:02:52;;;;;;;15.93;13.00;;;;;;;5.93;94.41;101471.44;5028797;28;20188;-64
2022/03/24 07:05:17;;;;;;;14.33;12.57;;;;;;;5.98;94.39;101471.59;5028114;28;20203;-64
2022/03/24 07:07:44;;;;;;;17.57;13.90;;;;;;;6.09;93.98;101469.34;5027813;28;20235;-64
2022/03/24 07:10:10;;;;;;;14.03;12.63;;;;;;;6.27;93.53;101470.72;5027021;28;20191;-63
2022/03/24 07:12:36;;;;;;;14.07;12.40;;;;;;;6.48;92.75;101473.88;5024247;28;20645;-63
2022/03/24 07:15:03;;;;;;;14.87;12.73;;;;;;;6.76;92.14;101466.00;5027954;28;20192;-64
2022/03/24 07:17:28;;;;;;;12.73;11.47;;;;;;;7.03;91.43;101470.97;5031174;28;20216;-64
2022/03/24 07:19:56;;;;;;;14.90;12.87;;;;;;;7.23;90.67;101473.19;5034821;28;20248;-63
2022/03/24 07:22:22;;;;;;;14.03;12.00;;;;;;;7.38;90.13;101470.09;5032329;28;20188;-64
2022/03/24 07:24:47;;;;;;;13.47;12.07;;;;;;;7.48;89.60;101469.47;5032496;28;20307;-64
2022/03/24 07:27:14;;;;;;;13.70;12.20;;;;;;;7.56;89.37;101467.94;5030939;28;20699;-64
2022/03/24 07:29:40;;;;;;;14.50;12.43;;;;;;;7.65;89.00;101466.38;5030820;28;20219;-63
2022/03/24 07:32:07;;;;;;;14.57;13.07;;;;;;;7.73;88.76;101464.84;5032819;28;20722;-64
2022/03/24 07:34:33;;;;;;;18.13;15.73;;;;;;;7.79;87.97;101470.13;5032541;28;20188;-63
2022/03/24 07:36:58;;;;;;;20.77;16.33;;;;;;;7.81;87.17;101472.75;5032698;28;20190;-64
2022/03/24 07:39:24;;;;;;;17.17;15.37;;;;;;;7.88;87.52;101472.03;5030162;28;20200;-63
2022/03/24 07:41:49;;;;;;;15.43;13.63;;;;;;;7.96;87.04;101479.94;5027700;28;20192;-63
2022/03/24 07:44:15;;;;;;;15.07;13.07;;;;;;;8.03;87.12;101472.34;5031918;28;20252;-63
2022/03/24 07:46:41;;;;;;;14.53;13.10;;;;;;;8.13;86.95;101470.84;5029272;28;20213;-63
2022/03/24 07:49:06;;;;;;;18.10;13.00;;;;;;;8.21;86.53;101471.88;5030379;28;20271;-63
2022/03/24 07:51:33;;;;;;;14.03;12.53;;;;;;;8.30;86.68;101467.72;5030093;28;20216;-64
2022/03/24 07:54:00;;;;;;;13.93;12.53;;;;;;;8.37;86.40;101470.47;5031447;28;20281;-64
2022/03/24 07:56:27;;;;;;;14.40;11.77;;;;;;;8.44;86.34;101471.44;5030146;28;20183;-63
2022/03/24 07:58:56;;;;;;;12.63;11.33;;;;;;;8.47;86.13;101481.81;5025464;28;20217;-63
2022/03/24 08:01:30;;;;;;;14.40;12.90;;;;;;;8.48;86.12;101473.28;5029415;28;20252;-63
2022/03/24 08:03:58;;;;;;;14.47;12.97;;;;;;;8.54;86.44;101481.16;5033514;28;20678;-63
2022/03/24 08:06:24;;;;;;;15.20;13.60;;;;;;;8.58;86.50;101476.03;5033927;28;20589;-63
2022/03/24 08:08:49;;;;;;;15.07;13.47;;;;;;;8.61;86.60;101481.25;5041991;28;20289;-63
2022/03/24 08:11:14;;;;;;;13.30;11.90;;;;;;;8.63;86.52;101479.56;5031336;28;20233;-63
2022/03/24 08:13:40;;;;;;;14.07;12.47;;;;;;;8.66;86.40;101470.16;5033670;28;20209;-64
2022/03/24 08:16:06;;;;;;;14.03;12.47;;;;;;;8.74;86.46;101487.50;5028316;28;20193;-63
2022/03/24 08:18:32;;;;;;;13.17;11.63;;;;;;;8.81;86.44;101472.16;5030650;28;20290;-63
2022/03/24 08:20:58;;;;;;;13.40;12.00;;;;;;;8.93;86.46;101475.78;5042411;28;20188;-63
2022/03/24 08:23:26;;;;;;;13.87;12.13;;;;;;;9.00;86.16;101467.28;5044568;28;20583;-63
2022/03/24 08:25:52;;;;;;;13.23;11.27;;;;;;;9.07;85.88;101470.88;5034080;28;20664;-63
2022/03/24 08:28:17;;;;;;;14.53;13.00;;;;;;;9.14;85.70;101473.56;5031686;28;20553;-63
2022/03/24 08:30:46;;;;;;;14.33;12.83;;;;;;;9.23;85.23;101471.97;5038621;28;20199;-63
2022/03/24 08:33:13;;;;;;;14.43;12.80;;;;;;;9.30;85.08;101469.50;5037206;28;20218;-64
2022/03/24 08:35:39;;;;;;;15.13;12.40;;;;;;;9.42;84.81;101478.28;5036480;28;20252;-63
2022/03/24 08:38:06;;;;;;;16.40;13.30;;;;;;;9.50;84.10;101474.09;5041428;28;20207;-63
2022/03/24 08:40:31;;;;;;;15.90;13.03;;;;;;;9.56;83.37;101476.75;5041280;28;20305;-64
2022/03/24 08:42:57;;;;;;;14.93;13.47;;;;;;;9.65;82.59;101482.94;5039418;28;20668;-64
2022/03/24 08:45:23;;;;;;;13.70;12.30;;;;;;;9.74;82.26;101483.03;5039831;28;20190;-63
2022/03/24 08:47:48;;;;;;;15.63;13.63;;;;;;;9.85;81.38;101480.59;5043581;28;20225;-63
2022/03/24 08:50:14;;;;;;;16.10;13.67;;;;;;;9.94;81.05;101479.84;5047379;28;20198;-63
2022/03/24 08:52:42;;;;;;;14.47;12.97;;;;;;;10.02;80.55;101480.81;5044344;28;20209;-63
2022/03/24 08:55:10;;;;;;;14.33;12.40;;;;;;;10.10;80.15;101483.50;5046478;28;20597;-64
2022/03/24 08:57:36;;;;;;;14.33;12.70;;;;;;;10.22;79.86;101478.47;5036941;28;20658;-63
2022/03/24 09:00:15;;;;;;;13.47;12.17;;;;;;;10.33;79.42;101479.47;5043480;28;20198;-63
2022/03/24 09:02:42;;;;;;;14.77;12.47;;;;;;;10.46;79.06;101477.91;5048035;28;20190;-63
2022/03/24 09:05:09;;;;;;;18.90;14.53;;;;;;;10.62;78.48;101488.41;5034518;28;20726;-64
2022/03/24 09:07:35;;;;;;;15.53;13.87;;;;;;;10.72;78.31;101482.50;5045038;28;20190;-63
2022/03/24 09:10:02;;;;;;;17.63;13.87;;;;;;;10.83;78.13;101479.97;5032194;28;20271;-64
2022/03/24 09:12:28;;;;;;;14.43;13.03;;;;;;;10.94;78.56;101482.69;5035811;28;20227;-64
2022/03/24 09:14:54;;;;;;;16.47;13.70;;;;;;;11.04;77.92;101483.63;5038860;28;20604;-63
2022/03/24 09:17:19;;;;;;;18.27;15.07;;;;;;;11.05;77.30;101480.19;5039049;28;20677;-63
2022/03/24 09:19:45;;;;;;;16.20;13.47;;;;;;;11.02;75.66;101478.44;5040995;28;20579;-64
2022/03/24 09:22:10;;;;;;;18.47;15.70;;;;;;;11.05;74.89;101481.03;5040564;28;20195;-64
2022/03/24 09:24:36;;;;;;;18.10;16.17;;;;;;;11.19;72.74;101475.13;5037206;28;20202;-64
2022/03/24 09:27:03;;;;;;;18.50;15.30;;;;;;;11.25;72.22;101475.16;5027975;28;20705;-64
2022/03/24 09:29:29;;;;;;;16.20;14.43;;;;;;;11.33;72.50;101476.09;5034813;28;20221;-63
2022/03/24 09:31:54;;;;;;;17.70;15.83;;;;;;;11.41;72.51;101482.19;5035807;28;20464;-64
2022/03/24 09:34:20;;;;;;;16.90;14.93;;;;;;;11.52;72.09;101476.19;5039622;28;20180;-64
2022/03/24 09:36:45;;;;;;;18.43;16.53;;;;;;;11.71;69.30;101472.84;5027722;28;20222;-63
2022/03/24 09:39:11;;;;;;;21.27;17.87;;;;;;;11.73;69.06;101475.44;5036532;28;20551;-63
2022/03/24 09:41:37;;;;;;;18.83;16.83;;;;;;;11.79;69.16;101478.09;5029179;28;20262;-63
2022/03/24 09:44:04;;;;;;;16.00;14.40;;;;;;;11.93;69.33;101469.50;5026153;28;20708;-63
2022/03/24 09:46:31;;;;;;;16.77;14.63;;;;;;;11.90;68.09;101468.63;5033127;28;20190;-63
2022/03/24 09:48:58;;;;;;;17.73;15.83;;;;;;;11.98;68.26;101465.22;5036888;28;20227;-62
2022/03/24 09:51:27;;;;;;;16.43;14.33;;;;;;;12.12;68.38;101462.69;5034695;28;20187;-62
2022/03/24 09:53:53;;;;;;;15.20;13.70;;;;;;;12.22;68.39;101460.97;5032480;28;20195;-62
2022/03/24 09:56:18;;;;;;;16.07;14.50;;;;;;;12.41;67.91;101461.91;5039350;28;20266;-62
2022/03/24 09:58:44;;;;;;;16.90;13.57;;;;;;;12.46;68.00;101450.69;5036632;28;20239;-62
2022/03/24 10:01:13;;;;;;;17.93;13.87;;;;;;;12.64;69.00;101457.63;5030389;28;20266;-62
2022/03/24 10:03:38;;;;;;;15.63;14.03;;;;;;;12.72;68.58;101455.03;5025400;28;20199;-62
2022/03/24 10:06:07;;;;;;;15.93;14.20;;;;;;;12.82;67.85;101455.91;5029163;28;20639;-62
2022/03/24 10:08:34;;;;;;;18.17;15.13;;;;;;;13.01;66.66;101456.78;5040112;28;20213;-62
2022/03/24 10:11:03;;;;;;;16.57;14.70;;;;;;;13.13;66.51;101458.50;5036451;28;20191;-62
2022/03/24 10:13:53;;;;;;;16.40;14.73;;;;;;;13.25;66.09;101452.41;5027136;28;20200;-62
2022/03/24 10:16:34;;;;;;;17.73;14.90;;;;;;;13.20;66.06;101452.41;5039900;28;20531;-62
2022/03/24 10:19:05;;;;;;;16.90;15.10;;;;;;;13.25;65.22;101444.59;5030966;28;20312;-62
2022/03/24 10:21:31;;;;;;;19.73;15.63;;;;;;;13.39;65.12;101439.41;5029566;28;20272;-62
2022/03/24 10:24:00;;;;;;;17.20;14.73;;;;;;;13.57;65.28;101446.31;5038492;28;20208;-63
2022/03/24 10:26:42;;;;;;;19.63;16.97;;;;;;;13.86;64.09;101442.75;5040087;28;20182;-62
2022/03/24 10:29:13;;;;;;;24.30;17.97;;;;;;;13.80;63.59;101448.00;5041038;28;20832;-62
2022/03/24 10:31:40;;;;;;;18.10;16.20;;;;;;;14.05;63.42;101442.66;5045615;28;20212;-62
2022/03/24 10:34:06;;;;;;;20.83;18.13;;;;;;;14.13;62.81;101436.56;5036658;28;20196;-64
2022/03/24 10:36:33;;;;;;;27.10;19.97;;;;;;;14.22;62.25;101432.19;5032810;28;20721;-64
2022/03/24 10:39:04;;;;;;;21.60;18.67;;;;;;;14.37;61.45;101426.00;5036327;28;20230;-62
2022/03/24 10:41:35;;;;;;;19.53;17.50;;;;;;;14.42;62.15;101427.69;5031144;28;20656;-62
2022/03/24 10:44:10;;;;;;;17.87;15.40;;;;;;;14.50;62.27;101427.66;5038428;28;20572;-64
2022/03/24 10:46:41;;;;;;;20.97;18.33;;;;;;;14.52;60.38;101431.13;5034415;28;20277;-63
2022/03/24 10:49:23;;;;;;;21.77;18.30;;;;;;;14.68;58.51;101420.59;5033776;28;20329;-63
2022/03/24 10:51:49;;;;;;;21.10;18.83;;;;;;;14.82;58.01;101431.78;5034298;28;20757;-63
2022/03/24 10:54:15;;;;;;;19.73;17.43;;;;;;;14.97;56.78;101417.78;5034170;28;20195;-63
2022/03/24 10:56:46;;;;;;;23.53;18.37;;;;;;;15.13;55.20;101420.19;5042935;28;20250;-63
2022/03/24 10:59:11;;;;;;;21.20;18.43;;;;;;;15.29;55.47;101421.78;5035356;28;20220;-63
2022/03/24 11:01:38;;;;;;;19.27;17.23;;;;;;;15.26;55.02;101415.72;5034774;28;20200;-63
2022/03/24 11:04:03;;;;;;;21.47;18.70;;;;;;;15.22;55.25;101414.91;5033065;28;20658;-63
2022/03/24 11:06:30;;;;;;;20.57;18.57;;;;;;;15.46;54.16;101412.91;5027779;28;20231;-63
2022/03/24 11:09:01;;;;;;;22.10;18.87;;;;;;;15.43;54.08;101411.22;5032163;28;20680;-63
2022/03/24 11:11:28;;;;;;;18.07;16.17;;;;;;;15.58;54.92;101410.16;5038904;28;20196;-62
2022/03/24 11:13:59;;;;;;;20.90;18.70;;;;;;;15.50;53.94;101422.44;5034161;28;20188;-63